Time;durP1;ratioP1;P1;durP2;ratioP2;P2;SDS_P1;SDS_P2;PMS_P1;PMS_P2;Temp;Humidity;BMP_temperature;BMP_pressure;BME280_temperature;BME280_humidity;BME280_pressure;Samples;Min_cycle;Max_cycle;Signal;HPM_P1;HPM_P2
2021/06/15 00:01:16;;;;;;;14.88;8.05;;;21.00;90.50;;;;;;4990905;28;20050;-76
2021/06/15 00:03:41;;;;;;;12.20;7.32;;;21.10;90.60;;;;;;4990583;28;20129;-77
2021/06/15 00:06:07;;;;;;;15.30;7.35;;;21.00;90.80;;;;;;4991006;28;20129;-77
2021/06/15 00:08:33;;;;;;;14.32;7.60;;;21.00;90.90;;;;;;4992489;28;20359;-77
2021/06/15 00:10:59;;;;;;;18.25;7.53;;;20.90;90.90;;;;;;4991017;28;20053;-75
2021/06/15 00:13:24;;;;;;;13.57;7.95;;;21.00;90.80;;;;;;4978849;28;20075;-77
2021/06/15 00:15:50;;;;;;;14.18;7.65;;;20.90;91.00;;;;;;4986441;28;20065;-77
2021/06/15 00:18:18;;;;;;;17.85;8.23;;;20.90;90.80;;;;;;4971171;28;20050;-77
2021/06/15 00:20:45;;;;;;;11.52;7.80;;;20.90;91.00;;;;;;4988142;28;20026;-78
2021/06/15 00:23:10;;;;;;;19.33;9.15;;;20.90;91.10;;;;;;4989121;28;20072;-77
2021/06/15 00:25:36;;;;;;;16.63;7.95;;;20.90;91.10;;;;;;4990592;28;20602;-75
2021/06/15 00:28:03;;;;;;;15.32;7.65;;;20.80;91.20;;;;;;4991030;28;20520;-76
2021/06/15 00:30:30;;;;;;;13.10;7.70;;;20.80;91.00;;;;;;4990440;28;20045;-78
2021/06/15 00:32:56;;;;;;;17.73;8.38;;;20.90;91.20;;;;;;4990367;28;20034;-72
2021/06/15 00:35:22;;;;;;;15.57;7.70;;;20.80;91.40;;;;;;4992123;28;20068;-78
2021/06/15 00:37:49;;;;;;;11.30;7.55;;;20.80;91.30;;;;;;4975105;28;20088;-78
2021/06/15 00:40:15;;;;;;;16.52;8.23;;;20.70;91.50;;;;;;4981523;28;20030;-77
2021/06/15 00:42:40;;;;;;;14.25;8.15;;;20.60;91.70;;;;;;4990474;28;20623;-78
2021/06/15 00:45:09;;;;;;;16.42;7.85;;;20.60;91.70;;;;;;4990268;28;20026;-78
2021/06/15 00:47:37;;;;;;;14.95;6.82;;;20.70;91.60;;;;;;4991957;28;20027;-77
2021/06/15 00:50:04;;;;;;;17.52;8.23;;;20.70;91.80;;;;;;4989131;28;20113;-77
2021/06/15 00:52:30;;;;;;;15.93;7.07;;;20.70;91.90;;;;;;4978068;28;20492;-77
2021/06/15 00:55:00;;;;;;;16.92;7.40;;;20.60;91.80;;;;;;4977653;28;20038;-77
2021/06/15 00:57:26;;;;;;;13.18;8.10;;;20.70;91.80;;;;;;4989236;28;20046;-77
2021/06/15 00:59:56;;;;;;;13.77;7.85;;;20.70;91.70;;;;;;4991682;28;20026;-77
2021/06/15 01:02:23;;;;;;;15.65;7.50;;;20.60;92.00;;;;;;4990717;28;20524;-76
2021/06/15 01:04:49;;;;;;;18.13;7.97;;;20.70;92.00;;;;;;4989970;28;20122;-77
2021/06/15 01:07:41;;;;;;;14.82;7.30;;;20.60;92.10;;;;;;4990113;28;20137;-77
2021/06/15 01:10:13;;;;;;;18.02;7.40;;;20.60;92.00;;;;;;4989822;28;20049;-76
2021/06/15 01:13:10;;;;;;;18.20;7.38;;;20.60;91.90;;;;;;4993811;28;20121;-76
2021/06/15 01:15:38;;;;;;;13.48;8.18;;;20.70;92.20;;;;;;4992309;28;20039;-78
2021/06/15 01:18:15;;;;;;;13.38;8.25;;;20.60;92.30;;;;;;4993932;28;20045;-78
2021/06/15 01:20:52;;;;;;;16.60;8.57;;;20.50;92.40;;;;;;4995575;28;20511;-75
2021/06/15 01:23:44;;;;;;;12.68;7.82;;;20.50;92.50;;;;;;4993897;28;20737;-77
2021/06/15 01:26:50;;;;;;;19.00;8.93;;;20.50;92.70;;;;;;4993833;28;20097;-77
2021/06/15 01:29:33;;;;;;;15.75;8.77;;;20.50;92.70;;;;;;4992520;28;20333;-77
2021/06/15 01:32:06;;;;;;;15.40;9.40;;;20.40;92.80;;;;;;4993721;28;20050;-78
2021/06/15 01:34:37;;;;;;;17.15;8.73;;;20.40;92.90;;;;;;4992598;28;20130;-75
2021/06/15 01:37:23;;;;;;;18.17;9.32;;;20.40;92.80;;;;;;5011753;28;20038;-77
2021/06/15 01:39:59;;;;;;;26.45;10.13;;;20.40;92.90;;;;;;5013360;28;20121;-77
2021/06/15 01:42:39;;;;;;;17.88;9.43;;;20.30;93.20;;;;;;5012942;28;20527;-77
2021/06/15 01:45:10;;;;;;;20.27;8.82;;;20.20;93.40;;;;;;5013249;28;20464;-77
2021/06/15 01:47:40;;;;;;;22.67;9.55;;;20.10;93.60;;;;;;5014848;28;20638;-76
2021/06/15 01:50:09;;;;;;;22.88;10.50;;;20.00;93.80;;;;;;5012763;28;20107;-79
2021/06/15 01:52:38;;;;;;;20.48;11.10;;;19.80;94.20;;;;;;5012432;28;20042;-78
2021/06/15 01:55:05;;;;;;;19.13;10.85;;;19.90;94.40;;;;;;5012782;28;20026;-77
2021/06/15 01:57:33;;;;;;;17.10;11.30;;;19.80;94.50;;;;;;5013084;28;20041;-78
2021/06/15 02:00:06;;;;;;;19.98;10.80;;;19.80;94.50;;;;;;5013426;28;20448;-78
2021/06/15 02:02:33;;;;;;;21.35;9.82;;;19.80;94.60;;;;;;5013557;28;20026;-78
2021/06/15 02:04:59;;;;;;;20.33;11.47;;;19.80;94.50;;;;;;5013387;28;20096;-77
2021/06/15 02:07:29;;;;;;;21.95;10.13;;;19.80;94.80;;;;;;5013152;28;20391;-76
2021/06/15 02:09:59;;;;;;;21.67;10.55;;;19.80;94.90;;;;;;5012998;28;20042;-78
2021/06/15 02:12:30;;;;;;;23.90;10.65;;;19.80;94.90;;;;;;5012829;28;20448;-78
2021/06/15 02:14:56;;;;;;;23.02;11.18;;;19.70;94.90;;;;;;5014298;28;20088;-77
2021/06/15 02:17:25;;;;;;;22.63;11.05;;;19.80;95.10;;;;;;5012807;28;20499;-77
2021/06/15 02:19:52;;;;;;;20.20;10.80;;;19.70;95.20;;;;;;5011792;28;20041;-77
2021/06/15 02:22:19;;;;;;;23.95;11.88;;;19.70;95.20;;;;;;5011154;28;20037;-77
2021/06/15 02:24:55;;;;;;;24.70;10.98;;;19.70;95.40;;;;;;5012534;28;20371;-78
2021/06/15 02:27:23;;;;;;;17.17;10.60;;;19.60;95.40;;;;;;5012528;28;20051;-76
2021/06/15 02:29:52;;;;;;;27.58;12.23;;;19.60;95.50;;;;;;5012749;28;20037;-78
2021/06/15 02:32:22;;;;;;;28.67;11.23;;;19.60;95.90;;;;;;5012446;28;20031;-78
2021/06/15 02:34:49;;;;;;;22.80;11.65;;;19.50;96.20;;;;;;5012371;28;20483;-76
2021/06/15 02:37:23;;;;;;;20.27;11.88;;;19.40;96.00;;;;;;5012167;28;20077;-78
2021/06/15 02:39:49;;;;;;;24.60;12.88;;;19.30;96.30;;;;;;5012088;28;20360;-77
2021/06/15 02:42:18;;;;;;;23.35;12.45;;;19.30;96.50;;;;;;5012395;28;20037;-77
2021/06/15 02:44:46;;;;;;;21.98;13.30;;;19.30;96.40;;;;;;5013801;28;20022;-78
2021/06/15 02:47:14;;;;;;;24.73;12.75;;;19.30;96.70;;;;;;5012191;28;20037;-78
2021/06/15 02:49:48;;;;;;;22.40;13.70;;;19.00;97.10;;;;;;5011916;28;20534;-78
2021/06/15 02:52:23;;;;;;;25.50;14.07;;;19.10;97.00;;;;;;5011829;28;20034;-77
2021/06/15 02:55:05;;;;;;;26.02;14.13;;;19.00;97.30;;;;;;5012600;28;20038;-78
2021/06/15 02:57:30;;;;;;;30.08;14.50;;;19.00;97.40;;;;;;5012211;28;20061;-78
2021/06/15 02:59:58;;;;;;;27.10;14.13;;;18.80;97.90;;;;;;5011328;28;20073;-75
2021/06/15 03:02:25;;;;;;;31.48;15.30;;;18.80;98.10;;;;;;5013406;28;20550;-78
2021/06/15 03:04:51;;;;;;;29.35;14.52;;;18.70;98.00;;;;;;5011637;28;20054;-78
2021/06/15 03:07:17;;;;;;;26.95;14.15;;;18.90;98.20;;;;;;5011445;28;20463;-78
2021/06/15 03:09:43;;;;;;;25.38;14.85;;;18.90;97.90;;;;;;5011565;28;20048;-77
2021/06/15 03:12:11;;;;;;;27.98;14.85;;;18.90;97.90;;;;;;5010347;28;20025;-77
2021/06/15 03:14:39;;;;;;;27.92;16.63;;;18.90;97.90;;;;;;5012343;28;20021;-77
2021/06/15 03:17:08;;;;;;;36.30;16.73;;;18.90;98.10;;;;;;5011336;28;20378;-78
2021/06/15 03:19:46;;;;;;;29.98;15.77;;;18.80;98.20;;;;;;5011160;28;20072;-79
2021/06/15 03:22:22;;;;;;;32.63;16.65;;;18.90;98.20;;;;;;5011418;28;20522;-77
2021/06/15 03:24:55;;;;;;;29.83;16.08;;;18.70;98.50;;;;;;5011432;28;20032;-79
2021/06/15 03:27:52;;;;;;;25.80;16.52;;;18.80;98.40;;;;;;5011219;28;20088;-77
2021/06/15 03:30:20;;;;;;;37.08;16.98;;;18.80;98.50;;;;;;5007735;28;20047;-78
2021/06/15 03:32:56;;;;;;;36.35;18.02;;;18.60;98.80;;;;;;4992751;28;20710;-78
2021/06/15 03:35:24;;;;;;;32.75;17.63;;;18.70;98.80;;;;;;5011394;28;20345;-77
2021/06/15 03:37:52;;;;;;;37.35;17.25;;;18.80;98.70;;;;;;5011063;28;20046;-78
2021/06/15 03:40:21;;;;;;;42.55;18.63;;;18.80;98.70;;;;;;5009587;28;20026;-77
2021/06/15 03:42:49;;;;;;;38.05;18.00;;;18.70;98.80;;;;;;5011045;28;20046;-77
2021/06/15 03:45:15;;;;;;;32.25;17.15;;;18.80;98.60;;;;;;5010875;28;20101;-78
2021/06/15 03:47:46;;;;;;;34.60;18.17;;;18.80;98.70;;;;;;5012604;28;20026;-77
2021/06/15 03:50:13;;;;;;;34.45;18.48;;;18.80;98.60;;;;;;5009782;28;20077;-78
2021/06/15 03:52:40;;;;;;;32.87;18.63;;;18.90;98.80;;;;;;5010975;28;20042;-77
2021/06/15 03:55:08;;;;;;;35.67;18.20;;;18.80;98.70;;;;;;5010599;28;20042;-77
2021/06/15 03:57:41;;;;;;;32.58;17.05;;;18.80;98.60;;;;;;5010699;28;20056;-78
2021/06/15 04:00:09;;;;;;;37.97;18.77;;;18.90;98.60;;;;;;5010632;28;20033;-78
2021/06/15 04:02:39;;;;;;;31.67;17.10;;;18.90;98.50;;;;;;5011176;28;20464;-78
2021/06/15 04:05:05;;;;;;;33.13;16.23;;;18.90;98.60;;;;;;5011407;28;20145;-78
2021/06/15 04:07:33;;;;;;;28.98;16.70;;;18.90;98.70;;;;;;5010781;28;20420;-78
2021/06/15 04:10:00;;;;;;;33.13;17.80;;;18.80;98.70;;;;;;5010709;28;20081;-77
2021/06/15 04:12:27;;;;;;;36.95;17.13;;;18.80;98.90;;;;;;5009246;28;20030;-77
2021/06/15 04:14:54;;;;;;;28.83;16.25;;;18.90;98.70;;;;;;5012337;28;20092;-78
2021/06/15 04:17:27;;;;;;;26.33;15.77;;;18.90;98.70;;;;;;5010280;28;20431;-78
2021/06/15 04:19:55;;;;;;;34.33;17.55;;;18.90;98.60;;;;;;5010404;28;20045;-77
2021/06/15 04:22:25;;;;;;;32.08;17.58;;;18.80;98.80;;;;;;5008879;28;20486;-76
2021/06/15 04:24:53;;;;;;;38.58;17.98;;;18.80;98.80;;;;;;5010544;28;20074;-77
2021/06/15 04:27:22;;;;;;;33.65;17.90;;;18.70;98.80;;;;;;5010326;28;20044;-76
2021/06/15 04:29:54;;;;;;;33.63;19.13;;;18.70;99.00;;;;;;5011767;28;20068;-77
2021/06/15 04:32:21;;;;;;;43.88;19.83;;;18.60;99.10;;;;;;5008840;28;20042;-76
2021/06/15 04:34:55;;;;;;;33.47;18.30;;;18.70;99.10;;;;;;5009710;28;20049;-79
2021/06/15 04:37:23;;;;;;;34.08;18.67;;;18.80;99.00;;;;;;5009372;28;20092;-77
2021/06/15 04:39:51;;;;;;;38.00;19.17;;;18.90;98.90;;;;;;5010452;28;20045;-78
2021/06/15 04:42:44;;;;;;;33.28;18.88;;;18.80;99.00;;;;;;5010265;28;20069;-77
2021/06/15 04:45:10;;;;;;;33.80;18.00;;;18.70;99.10;;;;;;5001862;28;20042;-78
2021/06/15 04:47:41;;;;;;;35.58;18.75;;;18.80;99.10;;;;;;5011476;28;20034;-77
2021/06/15 04:50:24;;;;;;;35.72;18.05;;;18.80;99.00;;;;;;5008637;28;20132;-78
2021/06/15 04:52:50;;;;;;;41.97;18.48;;;18.90;99.00;;;;;;5009935;28;20049;-78
2021/06/15 04:55:29;;;;;;;34.53;18.75;;;18.90;98.80;;;;;;5009994;28;20044;-78
2021/06/15 04:57:56;;;;;;;32.08;17.35;;;18.90;98.70;;;;;;5010170;28;20360;-77
2021/06/15 05:00:24;;;;;;;36.70;17.55;;;18.90;98.70;;;;;;5009767;28;20049;-77
2021/06/15 05:02:51;;;;;;;;;;;19.00;98.80;;;;;;5010752;28;20113;-77
2021/06/15 05:05:17;;;;;;;28.33;15.88;;;19.00;98.60;;;;;;5009714;28;19945;-76
2021/06/15 05:07:43;;;;;;;35.17;16.92;;;19.00;98.60;;;;;;5008722;28;20022;-77
2021/06/15 05:10:11;;;;;;;28.60;15.85;;;18.90;98.70;;;;;;5009409;28;20049;-77
2021/06/15 05:12:42;;;;;;;30.30;16.35;;;18.90;98.80;;;;;;5008431;28;20104;-77
2021/06/15 05:15:15;;;;;;;33.53;16.20;;;18.90;98.60;;;;;;5009599;28;20018;-78
2021/06/15 05:17:45;;;;;;;31.00;16.00;;;18.90;98.80;;;;;;5011230;28;20444;-77
2021/06/15 05:20:12;;;;;;;32.25;14.68;;;19.00;98.80;;;;;;5009148;28;20379;-81
2021/06/15 05:22:46;;;;;;;38.75;16.42;;;19.00;98.60;;;;;;5010227;28;20103;-79
2021/06/15 05:25:16;;;;;;;26.95;15.98;;;19.00;98.60;;;;;;5009998;28;20038;-80
2021/06/15 05:27:41;;;;;;;32.00;16.08;;;18.80;98.80;;;;;;5009840;28;20134;-81
2021/06/15 05:30:08;;;;;;;30.05;15.95;;;18.80;98.90;;;;;;5024926;28;20460;-81
2021/06/15 05:32:33;;;;;;;30.77;15.93;;;18.90;98.80;;;;;;5011262;28;20040;-81
2021/06/15 05:35:00;;;;;;;29.63;15.90;;;19.00;98.70;;;;;;5009717;28;20030;-80
2021/06/15 05:37:27;;;;;;;28.90;15.57;;;19.20;98.50;;;;;;5009589;28;20050;-82
2021/06/15 05:39:55;;;;;;;26.10;14.95;;;19.30;98.40;;;;;;5009722;28;20038;-80
2021/06/15 05:42:22;;;;;;;30.05;15.85;;;19.30;98.30;;;;;;5009561;28;20095;-79
2021/06/15 05:44:47;;;;;;;34.13;16.15;;;19.30;98.30;;;;;;5013019;28;20018;-78
2021/06/15 05:47:13;;;;;;;28.48;15.07;;;19.20;98.30;;;;;;5011072;28;20044;-78
2021/06/15 05:49:39;;;;;;;27.00;14.95;;;18.90;98.60;;;;;;5010486;28;20033;-79
2021/06/15 05:52:10;;;;;;;27.95;15.50;;;19.00;98.70;;;;;;5011347;28;20049;-76
2021/06/15 05:54:36;;;;;;;32.17;16.08;;;19.10;98.70;;;;;;4997895;28;20365;-77
2021/06/15 05:57:03;;;;;;;31.48;15.55;;;19.30;98.40;;;;;;4974015;28;20097;-77
2021/06/15 05:59:28;;;;;;;25.60;15.15;;;19.50;98.30;;;;;;4995969;28;20019;-78
2021/06/15 06:01:55;;;;;;;32.55;14.85;;;19.50;98.10;;;;;;4993770;28;20357;-77
2021/06/15 06:04:46;;;;;;;29.38;14.40;;;19.60;98.00;;;;;;4993262;28;20379;-76
2021/06/15 06:09:56;;;;;;;29.38;13.68;;;19.70;97.90;;;;;;4993799;28;20093;-77
2021/06/15 06:12:21;;;;;;;26.65;14.27;;;19.70;97.70;;;;;;4994461;28;20034;-77
2021/06/15 06:14:47;;;;;;;28.42;14.20;;;19.70;97.60;;;;;;4994784;28;20077;-77
2021/06/15 06:17:13;;;;;;;26.58;12.80;;;19.80;97.60;;;;;;4975062;28;20039;-77
2021/06/15 06:19:38;;;;;;;29.33;14.07;;;19.80;97.50;;;;;;4987402;28;20050;-77
2021/06/15 06:22:05;;;;;;;26.02;13.57;;;19.80;97.50;;;;;;4993006;28;20054;-77
2021/06/15 06:24:31;;;;;;;32.92;14.85;;;19.80;97.60;;;;;;4993211;28;20662;-77
2021/06/15 06:26:57;;;;;;;32.50;13.27;;;19.60;97.70;;;;;;4993103;28;20041;-76
2021/06/15 06:29:23;;;;;;;26.58;11.68;;;19.60;97.70;;;;;;4995354;28;20100;-77
2021/06/15 06:31:49;;;;;;;16.00;9.93;;;19.70;97.20;;;;;;4991856;28;20038;-78
2021/06/15 06:34:15;;;;;;;20.15;9.60;;;19.70;97.10;;;;;;4991696;28;20038;-75
2021/06/15 06:36:40;;;;;;;20.48;9.40;;;19.70;96.90;;;;;;4992673;28;20137;-77
2021/06/15 06:39:07;;;;;;;21.73;10.00;;;19.80;96.80;;;;;;4992802;28;20076;-76
2021/06/15 06:41:34;;;;;;;18.47;8.57;;;19.80;96.60;;;;;;4994567;28;20042;-77
2021/06/15 06:44:00;;;;;;;19.05;8.40;;;19.80;96.50;;;;;;4992844;28;20041;-77
2021/06/15 06:46:26;;;;;;;36.80;20.33;;;19.70;96.50;;;;;;4980909;28;20040;-76
2021/06/15 06:48:52;;;;;;;16.13;9.05;;;19.80;96.60;;;;;;4995961;28;20038;-78
2021/06/15 06:51:19;;;;;;;17.75;8.82;;;19.80;96.50;;;;;;4992682;28;20050;-77
2021/06/15 06:53:46;;;;;;;22.52;8.00;;;19.80;96.40;;;;;;4994066;28;20033;-77
2021/06/15 06:56:12;;;;;;;22.52;7.88;;;19.90;96.20;;;;;;4992766;28;20315;-77
2021/06/15 06:58:37;;;;;;;19.33;7.82;;;19.90;96.20;;;;;;4992599;28;20523;-77
2021/06/15 07:01:04;;;;;;;13.18;6.60;;;19.90;96.00;;;;;;4983886;28;20042;-77
2021/06/15 07:03:30;;;;;;;16.27;7.53;;;20.00;95.90;;;;;;4977583;28;20037;-76
2021/06/15 07:05:56;;;;;;;18.05;6.45;;;20.00;95.70;;;;;;4993684;28;20138;-73
2021/06/15 07:08:22;;;;;;;14.30;6.47;;;20.10;95.70;;;;;;4992474;28;20102;-75
2021/06/15 07:10:47;;;;;;;20.83;7.32;;;20.10;95.60;;;;;;4992426;28;20476;-75
2021/06/15 07:13:13;;;;;;;13.73;6.10;;;20.20;95.50;;;;;;4992060;28;20563;-76
2021/06/15 07:15:39;;;;;;;18.45;6.55;;;20.20;95.20;;;;;;4991543;28;20049;-75
2021/06/15 07:18:04;;;;;;;17.45;6.22;;;20.30;95.30;;;;;;4990478;28;20404;-75
2021/06/15 07:20:31;;;;;;;16.85;6.32;;;20.00;95.00;;;;;;4993074;28;20367;-75
2021/06/15 07:22:56;;;;;;;14.82;5.75;;;20.10;95.00;;;;;;4991529;28;20121;-76
2021/06/15 07:25:22;;;;;;;11.70;6.32;;;19.90;94.80;;;;;;4990480;28;20129;-75
2021/06/15 07:27:48;;;;;;;13.57;5.85;;;20.00;95.20;;;;;;4992022;28;20483;-76
2021/06/15 07:30:14;;;;;;;20.95;6.65;;;20.20;95.10;;;;;;4989273;28;20042;-75
2021/06/15 07:32:40;;;;;;;16.27;6.45;;;20.30;95.00;;;;;;4972693;28;20023;-75
2021/06/15 07:35:06;;;;;;;21.15;6.47;;;20.30;94.90;;;;;;4972058;28;20505;-76
2021/06/15 07:37:32;;;;;;;14.32;6.22;;;20.30;94.70;;;;;;4984661;28;20100;-76
2021/06/15 07:39:58;;;;;;;13.75;6.25;;;20.30;94.80;;;;;;4991565;28;20042;-75
2021/06/15 07:42:25;;;;;;;15.27;6.72;;;20.40;94.70;;;;;;4991107;28;20030;-75
2021/06/15 07:44:51;;;;;;;16.20;8.27;;;20.40;94.70;;;;;;4992908;28;20022;-76
2021/06/15 07:47:18;;;;;;;17.15;7.00;;;20.40;94.80;;;;;;4972335;28;20350;-75
2021/06/15 07:49:43;;;;;;;18.58;6.85;;;20.40;94.90;;;;;;4971563;28;20132;-73
2021/06/15 07:52:09;;;;;;;18.90;6.82;;;20.40;94.80;;;;;;4981349;28;20503;-75
2021/06/15 07:54:35;;;;;;;16.45;6.72;;;20.40;94.70;;;;;;4990990;28;20030;-75
2021/06/15 07:57:01;;;;;;;17.17;6.82;;;20.60;94.90;;;;;;4991138;28;20018;-75
2021/06/15 07:59:26;;;;;;;11.57;5.50;;;20.60;94.70;;;;;;4992310;28;20353;-76
2021/06/15 08:01:52;;;;;;;23.45;6.95;;;20.70;94.50;;;;;;4975341;28;20046;-74
2021/06/15 08:04:18;;;;;;;14.35;6.05;;;20.80;94.40;;;;;;4971675;28;20039;-75
2021/06/15 08:06:43;;;;;;;12.00;5.38;;;20.90;94.40;;;;;;4992814;28;20054;-75
2021/06/15 08:09:09;;;;;;;16.63;5.53;;;20.50;94.20;;;;;;4989883;28;20030;-75
2021/06/15 08:11:35;;;;;;;14.82;5.78;;;20.50;94.30;;;;;;4992044;28;20033;-76
2021/06/15 08:14:01;;;;;;;15.75;5.00;;;20.60;94.20;;;;;;4989819;28;20364;-77
2021/06/15 08:16:26;;;;;;;16.10;5.38;;;20.70;94.00;;;;;;4989656;28;20043;-76
2021/06/15 08:18:52;;;;;;;18.92;4.43;;;20.70;93.90;;;;;;4991225;28;20081;-77
2021/06/15 08:21:18;;;;;;;10.23;4.43;;;20.70;94.00;;;;;;4989818;28;20040;-75
2021/06/15 08:23:43;;;;;;;15.55;4.82;;;20.80;93.60;;;;;;4991836;28;20034;-74
2021/06/15 08:26:10;;;;;;;13.27;4.85;;;20.60;93.40;;;;;;4990498;28;20041;-76
2021/06/15 08:28:36;;;;;;;13.98;4.65;;;20.70;93.30;;;;;;4990189;28;20073;-77
2021/06/15 08:31:03;;;;;;;11.60;4.22;;;20.70;93.20;;;;;;4989264;28;20050;-77
2021/06/15 08:33:29;;;;;;;10.27;4.35;;;20.80;93.20;;;;;;4990329;28;20042;-77
2021/06/15 08:35:54;;;;;;;11.70;3.92;;;20.70;92.80;;;;;;4991525;28;20346;-76
2021/06/15 08:38:20;;;;;;;12.77;4.20;;;20.90;92.80;;;;;;4989245;28;20049;-76
2021/06/15 08:40:49;;;;;;;15.48;4.90;;;20.80;92.60;;;;;;4989998;28;20057;-76
2021/06/15 08:43:15;;;;;;;10.20;3.90;;;21.10;92.80;;;;;;4990303;28;20037;-77
2021/06/15 08:45:42;;;;;;;13.68;4.45;;;21.30;92.60;;;;;;4988896;28;20061;-76
2021/06/15 08:48:08;;;;;;;11.70;4.25;;;21.50;92.40;;;;;;4988835;28;20018;-76
2021/06/15 08:50:34;;;;;;;10.45;3.72;;;21.50;92.10;;;;;;4991805;28;20049;-76
2021/06/15 08:53:00;;;;;;;13.15;4.20;;;21.50;92.00;;;;;;4990247;28;20042;-75
2021/06/15 08:55:30;;;;;;;13.75;3.78;;;21.60;91.90;;;;;;4989997;28;20113;-74
2021/06/15 08:58:27;;;;;;;13.90;3.90;;;21.60;91.80;;;;;;4989493;28;20714;-76
2021/06/15 09:00:52;;;;;;;17.33;6.90;;;21.70;91.60;;;;;;4980692;28;20296;-75
2021/06/15 09:03:18;;;;;;;12.25;4.28;;;21.80;91.60;;;;;;4989719;28;20096;-76
2021/06/15 09:05:44;;;;;;;15.52;5.20;;;21.90;91.50;;;;;;4991498;28;20022;-76
2021/06/15 09:08:11;;;;;;;13.77;4.05;;;21.90;91.60;;;;;;4972369;28;20070;-76
2021/06/15 09:10:38;;;;;;;14.77;3.92;;;21.90;91.60;;;;;;4999483;28;20082;-76
2021/06/15 09:13:05;;;;;;;12.20;3.78;;;21.80;91.70;;;;;;4989492;28;20030;-76
2021/06/15 09:15:31;;;;;;;9.55;4.03;;;21.60;91.70;;;;;;4990022;28;20038;-76
2021/06/15 09:17:57;;;;;;;11.27;4.03;;;21.60;91.80;;;;;;4989908;28;20023;-74
2021/06/15 09:20:27;;;;;;;12.50;3.80;;;21.80;91.60;;;;;;4991662;28;20377;-75
2021/06/15 09:23:07;;;;;;;12.50;3.30;;;22.10;91.50;;;;;;4989969;28;20389;-74
2021/06/15 09:25:35;;;;;;;14.80;4.22;;;21.90;90.60;;;;;;4989943;28;20049;-75
2021/06/15 09:28:21;;;;;;;15.10;5.07;;;22.10;90.90;;;;;;4988442;28;20129;-74
2021/06/15 09:31:13;;;;;;;15.73;3.00;;;22.30;90.40;;;;;;4983069;28;20110;-75
2021/06/15 09:33:42;;;;;;;10.68;3.08;;;21.80;90.30;;;;;;4978669;28;20619;-76
2021/06/15 09:36:28;;;;;;;17.73;3.78;;;21.90;90.60;;;;;;4993047;28;20061;-76
2021/06/15 09:38:54;;;;;;;11.27;3.00;;;21.80;90.00;;;;;;4993829;28;20349;-76
2021/06/15 09:41:37;;;;;;;10.88;3.25;;;21.90;90.00;;;;;;4973966;28;20542;-74
2021/06/15 09:44:26;;;;;;;11.82;2.88;;;22.40;89.50;;;;;;4989452;28;20046;-74
2021/06/15 09:46:55;;;;;;;10.77;2.95;;;22.80;88.20;;;;;;4992967;28;20077;-74
2021/06/15 09:49:30;;;;;;;9.68;2.85;;;23.10;87.90;;;;;;4991683;28;20080;-74
2021/06/15 09:52:26;;;;;;;10.77;3.30;;;22.80;86.50;;;;;;4992074;28;20299;-74
2021/06/15 09:54:55;;;;;;;10.80;2.85;;;22.90;87.00;;;;;;4993255;28;20084;-73
2021/06/15 09:57:23;;;;;;;8.27;3.22;;;22.90;86.60;;;;;;4992479;28;20040;-76
2021/06/15 10:00:09;;;;;;;15.82;2.65;;;22.90;86.00;;;;;;4994490;28;20105;-74
2021/06/15 10:02:46;;;;;;;8.85;2.40;;;22.90;86.20;;;;;;4993300;28;20038;-74
2021/06/15 10:05:33;;;;;;;8.90;2.80;;;22.90;84.70;;;;;;4992973;28;20044;-75
2021/06/15 10:08:02;;;;;;;14.68;3.28;;;22.90;84.70;;;;;;4992914;28;20648;-74
2021/06/15 10:10:50;;;;;;;9.65;2.42;;;23.20;83.50;;;;;;4993131;28;20468;-75
2021/06/15 10:13:16;;;;;;;6.05;2.10;;;23.10;83.30;;;;;;4992649;28;20037;-75
2021/06/15 10:15:43;;;;;;;7.75;2.70;;;23.30;82.80;;;;;;4993187;28;20026;-76
2021/06/15 10:18:09;;;;;;;10.15;2.47;;;23.20;80.70;;;;;;4991383;28;20326;-75
2021/06/15 10:20:37;;;;;;;13.93;2.90;;;23.00;78.90;;;;;;4975281;28;20468;-74
2021/06/15 10:23:03;;;;;;;;;;;22.80;80.40;;;;;;4973965;28;20039;-75
2021/06/15 10:25:31;;;;;;;8.00;2.42;;;23.10;80.80;;;;;;4985706;28;19991;-74
2021/06/15 10:27:57;;;;;;;8.60;3.15;;;23.30;81.00;;;;;;4992584;28;20129;-75
2021/06/15 10:30:36;;;;;;;16.27;3.55;;;23.50;81.00;;;;;;4992247;28;20038;-74
2021/06/15 10:33:14;;;;;;;10.18;3.28;;;23.80;80.60;;;;;;4992552;28;20027;-75
2021/06/15 10:35:58;;;;;;;8.82;3.03;;;23.80;80.70;;;;;;4993180;28;20026;-74
2021/06/15 10:38:29;;;;;;;12.32;4.13;;;24.10;80.40;;;;;;4991837;28;20057;-74
2021/06/15 10:41:01;;;;;;;11.27;2.92;;;24.20;79.80;;;;;;4991260;28;20093;-75
2021/06/15 10:43:30;;;;;;;10.15;3.30;;;24.40;79.30;;;;;;4991372;28;20038;-75
2021/06/15 10:46:04;;;;;;;13.75;2.80;;;24.60;78.50;;;;;;4992575;28;20117;-75
2021/06/15 10:48:34;;;;;;;10.68;2.80;;;24.40;78.10;;;;;;4975860;28;20038;-83
2021/06/15 10:51:02;;;;;;;18.45;4.00;;;24.40;79.10;;;;;;4993326;28;20096;-80
2021/06/15 10:53:36;;;;;;;8.07;2.05;;;24.60;81.60;;;;;;4994354;28;20018;-82
2021/06/15 10:56:05;;;;;;;13.90;2.22;;;24.90;80.10;;;;;;4994250;28;20046;-78
2021/06/15 10:58:37;;;;;;;8.23;2.50;;;24.90;75.30;;;;;;4993888;28;20129;-85
2021/06/15 11:01:18;;;;;;;8.60;1.75;;;24.90;77.50;;;;;;4993219;28;20372;-74
2021/06/15 11:03:45;;;;;;;12.25;2.90;;;25.10;74.90;;;;;;4992175;28;20038;-74
2021/06/15 11:06:12;;;;;;;38.67;8.63;;;25.10;73.70;;;;;;4992168;28;20181;-74
2021/06/15 11:08:38;;;;;;;36.92;7.07;;;25.00;72.90;;;;;;4993564;28;20077;-73
2021/06/15 11:11:16;;;;;;;25.17;5.65;;;24.90;72.80;;;;;;4992343;28;20503;-74
2021/06/15 11:13:43;;;;;;;18.83;3.53;;;24.90;72.70;;;;;;4991526;28;20041;-74
2021/06/15 11:16:33;;;;;;;103.45;19.88;;;24.90;72.00;;;;;;4991952;28;20053;-73
2021/06/15 11:19:08;;;;;;;37.83;7.53;;;24.90;71.40;;;;;;4991603;28;20037;-75
2021/06/15 11:21:57;;;;;;;13.75;2.40;;;25.00;71.00;;;;;;4991886;28;20054;-75
2021/06/15 11:24:34;;;;;;;9.48;2.35;;;24.90;68.20;;;;;;4991469;28;20034;-73
2021/06/15 11:27:07;;;;;;;6.90;2.00;;;24.90;67.70;;;;;;4991410;28;20048;-74
2021/06/15 11:29:37;;;;;;;13.10;2.45;;;24.90;67.70;;;;;;4992822;28;20129;-74
2021/06/15 11:32:17;;;;;;;10.02;2.03;;;25.10;65.20;;;;;;4991229;28;20350;-74
2021/06/15 11:35:03;;;;;;;5.63;1.70;;;25.00;60.00;;;;;;4991089;28;20034;-73
2021/06/15 11:37:33;;;;;;;9.18;1.42;;;24.70;59.80;;;;;;4987153;28;20061;-72
2021/06/15 11:40:31;;;;;;;4.93;1.40;;;24.90;59.10;;;;;;4991431;28;20519;-73
2021/06/15 11:43:09;;;;;;;6.45;1.40;;;24.90;58.70;;;;;;4991244;28;20043;-74
2021/06/15 11:46:09;;;;;;;8.85;1.73;;;25.10;58.90;;;;;;4991535;28;20127;-74
2021/06/15 11:48:35;;;;;;;5.13;1.20;;;25.20;57.60;;;;;;4991294;28;20093;-73
2021/06/15 11:51:11;;;;;;;7.28;1.50;;;25.00;57.30;;;;;;4990383;28;20026;-73
2021/06/15 11:53:40;;;;;;;7.78;1.48;;;25.00;57.90;;;;;;4988080;28;20037;-73
2021/06/15 11:56:10;;;;;;;7.35;1.48;;;25.00;58.70;;;;;;4971623;28;20081;-73
2021/06/15 11:58:47;;;;;;;6.65;1.77;;;25.20;59.20;;;;;;4984728;28;20877;-74
2021/06/15 12:01:14;;;;;;;6.35;1.50;;;25.10;58.70;;;;;;4980634;28;20036;-73
2021/06/15 12:03:44;;;;;;;5.03;1.02;;;25.10;57.50;;;;;;4976336;28;20364;-74
2021/06/15 12:06:12;;;;;;;7.70;1.38;;;25.10;56.60;;;;;;4988703;28;20018;-74
2021/06/15 12:08:40;;;;;;;3.20;1.25;;;25.20;54.80;;;;;;4972956;28;20058;-74
2021/06/15 12:11:09;;;;;;;;;;;25.00;53.30;;;;;;4971532;28;20491;-74
2021/06/15 12:13:35;;;;;;;5.80;1.45;;;25.00;52.90;;;;;;4971314;28;19917;-73
2021/06/15 12:16:09;;;;;;;2.92;0.95;;;24.80;53.10;;;;;;4971095;28;20054;-72
2021/06/15 12:18:46;;;;;;;7.35;1.55;;;24.50;53.50;;;;;;4991803;28;20326;-72
2021/06/15 12:21:14;;;;;;;4.37;1.30;;;24.60;54.70;;;;;;4988533;28;20104;-72
2021/06/15 12:23:41;;;;;;;4.00;1.15;;;24.60;55.30;;;;;;4972590;28;20026;-73
2021/06/15 12:26:12;;;;;;;4.70;1.35;;;24.70;55.30;;;;;;4988388;28;20054;-73
2021/06/15 12:28:40;;;;;;;9.35;1.77;;;24.70;56.30;;;;;;4990406;28;20445;-73
2021/06/15 12:31:08;;;;;;;6.18;1.38;;;24.90;56.80;;;;;;4990577;28;20073;-74
2021/06/15 12:33:34;;;;;;;;;;;25.00;56.80;;;;;;4990985;28;20038;-73
2021/06/15 12:36:02;;;;;;;2.83;1.20;;;25.10;55.90;;;;;;4990377;28;19916;-73
2021/06/15 12:38:27;;;;;;;;;;;25.00;55.90;;;;;;4992534;28;20110;-74
2021/06/15 12:40:53;;;;;;;5.03;1.20;;;24.90;56.60;;;;;;4990294;28;20306;-74
2021/06/15 12:43:24;;;;;;;5.90;1.50;;;25.10;57.90;;;;;;4990269;28;20041;-72
2021/06/15 12:46:13;;;;;;;11.18;1.48;;;24.90;58.40;;;;;;4988802;28;20113;-74
2021/06/15 12:48:57;;;;;;;5.20;1.58;;;24.90;58.70;;;;;;4989979;28;20035;-75
2021/06/15 12:51:47;;;;;;;5.60;1.85;;;25.00;58.60;;;;;;4990036;28;20042;-74
2021/06/15 12:54:29;;;;;;;8.20;2.17;;;25.10;58.60;;;;;;4990253;28;20049;-73